sensor_id;sensor_type;location;lat;lon;timestamp;P1;durP1;ratioP1;P2;durP2;ratioP2
17169;SDS011;8700;48.222;16.342;2023-06-14T00:00:02;8.98;;;8.23;;
17169;SDS011;8700;48.222;16.342;2023-06-14T00:03:30;9.60;;;8.65;;
17169;SDS011;8700;48.222;16.342;2023-06-14T00:06:53;9.68;;;8.98;;
17169;SDS011;8700;48.222;16.342;2023-06-14T00:10:16;9.13;;;7.93;;
17169;SDS011;8700;48.222;16.342;2023-06-14T00:13:38;9.45;;;8.65;;
17169;SDS011;8700;48.222;16.342;2023-06-14T00:17:00;8.95;;;8.15;;
17169;SDS011;8700;48.222;16.342;2023-06-14T00:20:23;9.27;;;8.57;;
17169;SDS011;8700;48.222;16.342;2023-06-14T00:23:45;8.82;;;8.10;;
17169;SDS011;8700;48.222;16.342;2023-06-14T00:27:09;9.02;;;8.32;;
17169;SDS011;8700;48.222;16.342;2023-06-14T00:30:34;10.55;;;9.85;;
17169;SDS011;8700;48.222;16.342;2023-06-14T00:33:56;9.48;;;8.55;;
17169;SDS011;8700;48.222;16.342;2023-06-14T00:37:19;10.40;;;9.43;;
17169;SDS011;8700;48.222;16.342;2023-06-14T00:40:41;9.85;;;9.05;;
17169;SDS011;8700;48.222;16.342;2023-06-14T00:44:02;9.40;;;8.73;;
17169;SDS011;8700;48.222;16.342;2023-06-14T00:47:25;9.80;;;9.00;;
17169;SDS011;8700;48.222;16.342;2023-06-14T00:50:47;10.07;;;9.27;;
17169;SDS011;8700;48.222;16.342;2023-06-14T00:54:14;9.68;;;8.82;;
17169;SDS011;8700;48.222;16.342;2023-06-14T00:57:35;9.25;;;8.55;;
17169;SDS011;8700;48.222;16.342;2023-06-14T01:01:00;9.90;;;9.20;;
17169;SDS011;8700;48.222;16.342;2023-06-14T01:04:22;10.02;;;9.32;;
17169;SDS011;8700;48.222;16.342;2023-06-14T01:07:51;9.98;;;9.18;;
17169;SDS011;8700;48.222;16.342;2023-06-14T01:11:27;9.15;;;8.32;;
17169;SDS011;8700;48.222;16.342;2023-06-14T01:14:54;8.60;;;7.95;;
17169;SDS011;8700;48.222;16.342;2023-06-14T01:18:18;8.82;;;8.23;;
17169;SDS011;8700;48.222;16.342;2023-06-14T01:21:39;9.95;;;9.00;;
17169;SDS011;8700;48.222;16.342;2023-06-14T01:25:04;10.23;;;9.38;;
17169;SDS011;8700;48.222;16.342;2023-06-14T01:28:26;10.18;;;9.38;;
17169;SDS011;8700;48.222;16.342;2023-06-14T01:31:51;9.10;;;8.40;;
17169;SDS011;8700;48.222;16.342;2023-06-14T01:35:14;9.15;;;8.48;;
17169;SDS011;8700;48.222;16.342;2023-06-14T01:38:38;9.55;;;8.95;;
17169;SDS011;8700;48.222;16.342;2023-06-14T01:42:02;10.07;;;9.23;;
17169;SDS011;8700;48.222;16.342;2023-06-14T01:45:25;10.60;;;9.80;;
17169;SDS011;8700;48.222;16.342;2023-06-14T01:48:48;9.90;;;9.02;;
17169;SDS011;8700;48.222;16.342;2023-06-14T01:52:10;12.80;;;9.20;;
17169;SDS011;8700;48.222;16.342;2023-06-14T01:55:32;10.30;;;9.60;;
17169;SDS011;8700;48.222;16.342;2023-06-14T01:58:59;10.60;;;9.45;;
17169;SDS011;8700;48.222;16.342;2023-06-14T02:02:21;9.95;;;9.15;;
17169;SDS011;8700;48.222;16.342;2023-06-14T02:05:43;10.20;;;9.40;;
17169;SDS011;8700;48.222;16.342;2023-06-14T02:09:04;9.90;;;9.07;;
17169;SDS011;8700;48.222;16.342;2023-06-14T02:12:28;9.40;;;8.57;;
17169;SDS011;8700;48.222;16.342;2023-06-14T02:15:51;10.25;;;9.35;;
17169;SDS011;8700;48.222;16.342;2023-06-14T02:19:14;10.35;;;9.55;;
17169;SDS011;8700;48.222;16.342;2023-06-14T02:22:36;10.52;;;9.73;;
17169;SDS011;8700;48.222;16.342;2023-06-14T02:25:58;9.48;;;8.77;;
17169;SDS011;8700;48.222;16.342;2023-06-14T02:29:20;9.70;;;8.95;;
17169;SDS011;8700;48.222;16.342;2023-06-14T02:32:43;9.20;;;8.55;;
17169;SDS011;8700;48.222;16.342;2023-06-14T02:36:05;9.60;;;8.77;;
17169;SDS011;8700;48.222;16.342;2023-06-14T02:39:27;9.02;;;8.38;;
17169;SDS011;8700;48.222;16.342;2023-06-14T02:42:55;10.18;;;9.25;;
17169;SDS011;8700;48.222;16.342;2023-06-14T02:46:16;10.30;;;9.40;;
17169;SDS011;8700;48.222;16.342;2023-06-14T02:49:39;9.85;;;9.02;;
17169;SDS011;8700;48.222;16.342;2023-06-14T02:53:01;10.95;;;8.93;;
17169;SDS011;8700;48.222;16.342;2023-06-14T02:56:23;10.35;;;8.77;;
17169;SDS011;8700;48.222;16.342;2023-06-14T02:59:46;10.00;;;9.30;;
17169;SDS011;8700;48.222;16.342;2023-06-14T03:03:07;9.98;;;9.13;;
17169;SDS011;8700;48.222;16.342;2023-06-14T03:06:34;9.65;;;8.77;;
17169;SDS011;8700;48.222;16.342;2023-06-14T03:09:56;10.18;;;9.27;;
17169;SDS011;8700;48.222;16.342;2023-06-14T03:13:20;10.40;;;9.43;;
17169;SDS011;8700;48.222;16.342;2023-06-14T03:16:41;10.32;;;9.43;;
17169;SDS011;8700;48.222;16.342;2023-06-14T03:20:03;10.95;;;9.95;;
17169;SDS011;8700;48.222;16.342;2023-06-14T03:23:27;10.07;;;9.23;;
17169;SDS011;8700;48.222;16.342;2023-06-14T03:26:48;9.02;;;8.30;;
17169;SDS011;8700;48.222;16.342;2023-06-14T03:30:11;10.80;;;9.90;;
17169;SDS011;8700;48.222;16.342;2023-06-14T03:33:35;9.85;;;9.18;;
17169;SDS011;8700;48.222;16.342;2023-06-14T03:36:56;14.50;;;13.05;;
17169;SDS011;8700;48.222;16.342;2023-06-14T03:40:20;10.50;;;9.68;;
17169;SDS011;8700;48.222;16.342;2023-06-14T03:43:46;11.27;;;10.13;;
17169;SDS011;8700;48.222;16.342;2023-06-14T03:47:08;10.00;;;9.23;;
17169;SDS011;8700;48.222;16.342;2023-06-14T03:50:29;11.00;;;10.10;;
17169;SDS011;8700;48.222;16.342;2023-06-14T03:53:57;10.45;;;9.60;;
17169;SDS011;8700;48.222;16.342;2023-06-14T03:57:20;10.45;;;9.45;;
17169;SDS011;8700;48.222;16.342;2023-06-14T04:00:43;10.73;;;9.73;;
17169;SDS011;8700;48.222;16.342;2023-06-14T04:04:06;11.13;;;10.15;;
17169;SDS011;8700;48.222;16.342;2023-06-14T04:07:28;10.23;;;9.50;;
17169;SDS011;8700;48.222;16.342;2023-06-14T04:10:49;10.30;;;9.05;;
17169;SDS011;8700;48.222;16.342;2023-06-14T04:14:13;10.75;;;9.90;;
17169;SDS011;8700;48.222;16.342;2023-06-14T04:17:34;10.70;;;9.80;;
17169;SDS011;8700;48.222;16.342;2023-06-14T04:20:56;11.43;;;10.43;;
17169;SDS011;8700;48.222;16.342;2023-06-14T04:24:18;10.05;;;9.10;;
17169;SDS011;8700;48.222;16.342;2023-06-14T04:27:40;11.38;;;10.45;;
17169;SDS011;8700;48.222;16.342;2023-06-14T04:31:03;10.90;;;10.00;;
17169;SDS011;8700;48.222;16.342;2023-06-14T04:34:25;10.48;;;9.68;;
17169;SDS011;8700;48.222;16.342;2023-06-14T04:37:50;9.85;;;9.02;;
17169;SDS011;8700;48.222;16.342;2023-06-14T04:41:13;10.93;;;9.98;;
17169;SDS011;8700;48.222;16.342;2023-06-14T04:44:35;9.82;;;9.13;;
17169;SDS011;8700;48.222;16.342;2023-06-14T04:48:00;10.75;;;9.85;;
17169;SDS011;8700;48.222;16.342;2023-06-14T04:51:22;10.57;;;9.77;;
17169;SDS011;8700;48.222;16.342;2023-06-14T04:54:49;9.90;;;8.90;;
17169;SDS011;8700;48.222;16.342;2023-06-14T04:58:12;9.90;;;9.05;;
17169;SDS011;8700;48.222;16.342;2023-06-14T05:01:33;11.75;;;10.80;;
17169;SDS011;8700;48.222;16.342;2023-06-14T05:04:58;11.55;;;10.48;;
17169;SDS011;8700;48.222;16.342;2023-06-14T05:08:21;11.27;;;10.27;;
17169;SDS011;8700;48.222;16.342;2023-06-14T05:11:44;9.75;;;9.05;;
17169;SDS011;8700;48.222;16.342;2023-06-14T05:15:08;10.95;;;9.98;;
17169;SDS011;8700;48.222;16.342;2023-06-14T05:18:33;11.50;;;10.50;;
17169;SDS011;8700;48.222;16.342;2023-06-14T05:21:57;10.38;;;9.65;;
17169;SDS011;8700;48.222;16.342;2023-06-14T05:25:18;10.48;;;9.52;;
17169;SDS011;8700;48.222;16.342;2023-06-14T05:28:40;9.88;;;8.68;;
17169;SDS011;8700;48.222;16.342;2023-06-14T05:32:04;11.60;;;10.77;;
17169;SDS011;8700;48.222;16.342;2023-06-14T05:35:27;11.02;;;9.93;;
17169;SDS011;8700;48.222;16.342;2023-06-14T05:38:53;9.85;;;8.90;;
17169;SDS011;8700;48.222;16.342;2023-06-14T05:42:18;10.10;;;9.30;;
17169;SDS011;8700;48.222;16.342;2023-06-14T05:45:39;12.25;;;10.98;;
17169;SDS011;8700;48.222;16.342;2023-06-14T05:49:01;9.93;;;9.13;;
17169;SDS011;8700;48.222;16.342;2023-06-14T05:52:23;9.60;;;8.75;;
17169;SDS011;8700;48.222;16.342;2023-06-14T05:55:46;11.00;;;10.07;;
17169;SDS011;8700;48.222;16.342;2023-06-14T05:59:09;12.80;;;10.43;;
17169;SDS011;8700;48.222;16.342;2023-06-14T06:02:31;9.77;;;9.07;;
17169;SDS011;8700;48.222;16.342;2023-06-14T06:05:53;9.68;;;9.05;;
17169;SDS011;8700;48.222;16.342;2023-06-14T06:09:15;9.23;;;8.48;;
17169;SDS011;8700;48.222;16.342;2023-06-14T06:12:38;7.78;;;7.28;;
17169;SDS011;8700;48.222;16.342;2023-06-14T06:16:00;10.18;;;9.15;;
17169;SDS011;8700;48.222;16.342;2023-06-14T06:19:21;9.23;;;8.52;;
17169;SDS011;8700;48.222;16.342;2023-06-14T06:22:43;9.73;;;9.00;;
17169;SDS011;8700;48.222;16.342;2023-06-14T06:26:04;10.70;;;9.73;;
17169;SDS011;8700;48.222;16.342;2023-06-14T06:29:27;11.30;;;10.30;;
17169;SDS011;8700;48.222;16.342;2023-06-14T06:32:48;8.45;;;7.47;;
17169;SDS011;8700;48.222;16.342;2023-06-14T06:36:10;10.13;;;9.43;;
17169;SDS011;8700;48.222;16.342;2023-06-14T06:39:31;9.85;;;8.95;;
17169;SDS011;8700;48.222;16.342;2023-06-14T06:42:53;9.88;;;9.05;;
17169;SDS011;8700;48.222;16.342;2023-06-14T06:46:16;8.43;;;7.70;;
17169;SDS011;8700;48.222;16.342;2023-06-14T06:49:39;9.48;;;8.20;;
17169;SDS011;8700;48.222;16.342;2023-06-14T06:53:00;8.93;;;8.10;;
17169;SDS011;8700;48.222;16.342;2023-06-14T06:56:22;10.82;;;9.75;;
17169;SDS011;8700;48.222;16.342;2023-06-14T06:59:44;9.20;;;8.35;;
17169;SDS011;8700;48.222;16.342;2023-06-14T07:03:08;10.70;;;9.68;;
17169;SDS011;8700;48.222;16.342;2023-06-14T07:06:31;10.00;;;9.20;;
17169;SDS011;8700;48.222;16.342;2023-06-14T07:09:55;9.45;;;8.70;;
17169;SDS011;8700;48.222;16.342;2023-06-14T07:13:19;9.10;;;8.25;;
17169;SDS011;8700;48.222;16.342;2023-06-14T07:16:41;8.90;;;8.30;;
17169;SDS011;8700;48.222;16.342;2023-06-14T07:20:04;8.77;;;7.95;;
17169;SDS011;8700;48.222;16.342;2023-06-14T07:23:35;9.38;;;8.57;;
17169;SDS011;8700;48.222;16.342;2023-06-14T07:26:56;8.38;;;7.72;;
17169;SDS011;8700;48.222;16.342;2023-06-14T07:30:18;8.05;;;7.43;;
17169;SDS011;8700;48.222;16.342;2023-06-14T07:33:40;7.93;;;6.72;;
17169;SDS011;8700;48.222;16.342;2023-06-14T07:37:03;6.50;;;6.00;;
17169;SDS011;8700;48.222;16.342;2023-06-14T07:40:29;7.65;;;6.95;;
17169;SDS011;8700;48.222;16.342;2023-06-14T07:43:50;6.93;;;6.43;;
17169;SDS011;8700;48.222;16.342;2023-06-14T07:47:12;6.15;;;5.68;;
17169;SDS011;8700;48.222;16.342;2023-06-14T07:50:34;6.72;;;5.88;;
17169;SDS011;8700;48.222;16.342;2023-06-14T07:53:58;6.28;;;5.82;;
17169;SDS011;8700;48.222;16.342;2023-06-14T07:57:21;7.00;;;6.50;;
17169;SDS011;8700;48.222;16.342;2023-06-14T08:00:43;6.93;;;6.40;;
17169;SDS011;8700;48.222;16.342;2023-06-14T08:04:05;7.57;;;6.97;;
17169;SDS011;8700;48.222;16.342;2023-06-14T08:07:27;7.25;;;6.57;;
17169;SDS011;8700;48.222;16.342;2023-06-14T08:10:49;6.53;;;5.93;;
17169;SDS011;8700;48.222;16.342;2023-06-14T08:14:15;8.57;;;6.82;;
17169;SDS011;8700;48.222;16.342;2023-06-14T08:17:37;6.60;;;5.75;;
17169;SDS011;8700;48.222;16.342;2023-06-14T08:21:01;8.98;;;6.97;;
17169;SDS011;8700;48.222;16.342;2023-06-14T08:24:23;6.57;;;5.90;;
17169;SDS011;8700;48.222;16.342;2023-06-14T08:27:50;5.53;;;4.95;;
17169;SDS011;8700;48.222;16.342;2023-06-14T08:31:14;6.32;;;5.85;;
17169;SDS011;8700;48.222;16.342;2023-06-14T08:34:36;6.22;;;5.57;;
17169;SDS011;8700;48.222;16.342;2023-06-14T08:37:57;5.57;;;5.18;;
17169;SDS011;8700;48.222;16.342;2023-06-14T08:41:22;5.90;;;5.47;;
17169;SDS011;8700;48.222;16.342;2023-06-14T08:44:48;6.68;;;6.18;;
17169;SDS011;8700;48.222;16.342;2023-06-14T08:48:10;5.50;;;5.10;;
17169;SDS011;8700;48.222;16.342;2023-06-14T08:51:36;5.45;;;4.93;;
17169;SDS011;8700;48.222;16.342;2023-06-14T08:55:01;6.40;;;5.90;;
17169;SDS011;8700;48.222;16.342;2023-06-14T08:58:24;6.18;;;5.60;;
17169;SDS011;8700;48.222;16.342;2023-06-14T09:01:50;6.15;;;5.43;;
17169;SDS011;8700;48.222;16.342;2023-06-14T09:05:16;4.97;;;4.60;;
17169;SDS011;8700;48.222;16.342;2023-06-14T09:08:40;5.13;;;4.68;;
17169;SDS011;8700;48.222;16.342;2023-06-14T09:12:03;5.75;;;5.35;;
17169;SDS011;8700;48.222;16.342;2023-06-14T09:15:26;6.18;;;5.25;;
17169;SDS011;8700;48.222;16.342;2023-06-14T09:18:51;5.68;;;4.75;;
17169;SDS011;8700;48.222;16.342;2023-06-14T09:22:12;5.43;;;4.50;;
17169;SDS011;8700;48.222;16.342;2023-06-14T09:25:41;7.93;;;5.05;;
17169;SDS011;8700;48.222;16.342;2023-06-14T09:29:04;5.18;;;4.85;;
17169;SDS011;8700;48.222;16.342;2023-06-14T09:32:26;5.78;;;5.35;;
17169;SDS011;8700;48.222;16.342;2023-06-14T09:35:52;5.05;;;4.65;;
17169;SDS011;8700;48.222;16.342;2023-06-14T09:39:16;5.18;;;4.70;;
17169;SDS011;8700;48.222;16.342;2023-06-14T09:42:38;4.85;;;4.45;;
17169;SDS011;8700;48.222;16.342;2023-06-14T09:46:01;6.20;;;5.13;;
17169;SDS011;8700;48.222;16.342;2023-06-14T09:49:29;5.25;;;4.95;;
17169;SDS011;8700;48.222;16.342;2023-06-14T09:52:55;5.60;;;5.07;;
17169;SDS011;8700;48.222;16.342;2023-06-14T09:56:34;5.78;;;5.32;;
17169;SDS011;8700;48.222;16.342;2023-06-14T09:59:58;4.22;;;3.90;;
17169;SDS011;8700;48.222;16.342;2023-06-14T10:03:25;6.30;;;5.68;;
17169;SDS011;8700;48.222;16.342;2023-06-14T10:06:49;5.40;;;5.00;;
17169;SDS011;8700;48.222;16.342;2023-06-14T10:10:14;5.55;;;5.05;;
17169;SDS011;8700;48.222;16.342;2023-06-14T10:13:36;7.57;;;4.88;;
17169;SDS011;8700;48.222;16.342;2023-06-14T10:16:59;5.18;;;4.78;;
17169;SDS011;8700;48.222;16.342;2023-06-14T10:20:27;4.80;;;4.50;;
17169;SDS011;8700;48.222;16.342;2023-06-14T10:23:53;5.18;;;4.80;;
17169;SDS011;8700;48.222;16.342;2023-06-14T10:27:19;6.05;;;5.28;;
17169;SDS011;8700;48.222;16.342;2023-06-14T10:34:26;6.75;;;6.30;;
17169;SDS011;8700;48.222;16.342;2023-06-14T10:37:48;6.32;;;5.70;;
17169;SDS011;8700;48.222;16.342;2023-06-14T10:41:09;6.82;;;6.28;;
17169;SDS011;8700;48.222;16.342;2023-06-14T10:44:42;6.30;;;5.80;;
17169;SDS011;8700;48.222;16.342;2023-06-14T10:48:06;6.05;;;5.65;;
17169;SDS011;8700;48.222;16.342;2023-06-14T10:51:50;7.32;;;6.20;;
17169;SDS011;8700;48.222;16.342;2023-06-14T10:55:13;7.82;;;5.72;;
17169;SDS011;8700;48.222;16.342;2023-06-14T10:58:36;6.20;;;5.55;;
17169;SDS011;8700;48.222;16.342;2023-06-14T11:02:03;6.78;;;6.18;;
17169;SDS011;8700;48.222;16.342;2023-06-14T11:05:42;6.35;;;5.85;;
17169;SDS011;8700;48.222;16.342;2023-06-14T11:13:06;10.38;;;6.80;;
17169;SDS011;8700;48.222;16.342;2023-06-14T11:16:28;5.95;;;5.40;;
17169;SDS011;8700;48.222;16.342;2023-06-14T11:23:42;5.82;;;5.32;;
17169;SDS011;8700;48.222;16.342;2023-06-14T11:27:14;6.07;;;5.32;;
17169;SDS011;8700;48.222;16.342;2023-06-14T11:30:35;6.18;;;5.57;;
17169;SDS011;8700;48.222;16.342;2023-06-14T11:33:58;5.80;;;5.28;;
17169;SDS011;8700;48.222;16.342;2023-06-14T11:37:23;7.55;;;6.80;;
17169;SDS011;8700;48.222;16.342;2023-06-14T11:40:47;6.45;;;5.90;;
17169;SDS011;8700;48.222;16.342;2023-06-14T11:44:08;6.95;;;6.35;;
17169;SDS011;8700;48.222;16.342;2023-06-14T11:47:31;8.38;;;7.63;;
17169;SDS011;8700;48.222;16.342;2023-06-14T11:50:53;7.78;;;7.03;;
17169;SDS011;8700;48.222;16.342;2023-06-14T11:54:16;6.78;;;6.10;;
17169;SDS011;8700;48.222;16.342;2023-06-14T11:57:41;6.70;;;6.15;;
17169;SDS011;8700;48.222;16.342;2023-06-14T12:01:04;9.27;;;6.80;;
17169;SDS011;8700;48.222;16.342;2023-06-14T12:04:26;6.07;;;5.60;;
17169;SDS011;8700;48.222;16.342;2023-06-14T12:07:48;6.75;;;6.20;;
17169;SDS011;8700;48.222;16.342;2023-06-14T12:11:21;5.78;;;5.40;;
17169;SDS011;8700;48.222;16.342;2023-06-14T12:14:44;6.72;;;6.03;;
17169;SDS011;8700;48.222;16.342;2023-06-14T12:18:08;6.90;;;6.40;;
17169;SDS011;8700;48.222;16.342;2023-06-14T12:21:31;6.07;;;5.57;;
17169;SDS011;8700;48.222;16.342;2023-06-14T12:24:56;7.53;;;6.93;;
17169;SDS011;8700;48.222;16.342;2023-06-14T12:28:17;6.32;;;5.70;;
17169;SDS011;8700;48.222;16.342;2023-06-14T12:31:41;7.00;;;6.35;;
17169;SDS011;8700;48.222;16.342;2023-06-14T12:35:03;6.05;;;5.65;;
17169;SDS011;8700;48.222;16.342;2023-06-14T12:38:25;6.20;;;5.63;;
17169;SDS011;8700;48.222;16.342;2023-06-14T12:41:48;6.07;;;5.55;;
17169;SDS011;8700;48.222;16.342;2023-06-14T12:45:12;6.82;;;6.15;;
17169;SDS011;8700;48.222;16.342;2023-06-14T12:48:36;7.18;;;6.55;;
17169;SDS011;8700;48.222;16.342;2023-06-14T12:51:59;7.93;;;6.90;;
17169;SDS011;8700;48.222;16.342;2023-06-14T12:55:21;7.07;;;6.38;;
17169;SDS011;8700;48.222;16.342;2023-06-14T12:58:44;7.05;;;6.50;;
17169;SDS011;8700;48.222;16.342;2023-06-14T13:02:10;6.95;;;6.22;;
17169;SDS011;8700;48.222;16.342;2023-06-14T13:05:37;6.97;;;5.75;;
17169;SDS011;8700;48.222;16.342;2023-06-14T13:09:00;7.78;;;5.60;;
17169;SDS011;8700;48.222;16.342;2023-06-14T13:12:23;6.93;;;6.15;;
17169;SDS011;8700;48.222;16.342;2023-06-14T13:15:45;6.85;;;6.22;;
17169;SDS011;8700;48.222;16.342;2023-06-14T13:19:09;6.18;;;5.53;;
17169;SDS011;8700;48.222;16.342;2023-06-14T13:22:32;5.95;;;5.45;;
17169;SDS011;8700;48.222;16.342;2023-06-14T13:25:56;6.20;;;5.75;;
17169;SDS011;8700;48.222;16.342;2023-06-14T13:29:18;6.82;;;6.30;;
17169;SDS011;8700;48.222;16.342;2023-06-14T13:32:40;8.35;;;6.47;;
17169;SDS011;8700;48.222;16.342;2023-06-14T13:36:02;6.10;;;5.55;;
17169;SDS011;8700;48.222;16.342;2023-06-14T13:39:28;6.40;;;5.90;;
17169;SDS011;8700;48.222;16.342;2023-06-14T13:42:49;5.93;;;5.43;;
17169;SDS011;8700;48.222;16.342;2023-06-14T13:46:12;7.20;;;6.60;;
17169;SDS011;8700;48.222;16.342;2023-06-14T13:49:33;6.88;;;6.38;;
17169;SDS011;8700;48.222;16.342;2023-06-14T13:52:56;10.95;;;10.02;;
17169;SDS011;8700;48.222;16.342;2023-06-14T13:56:19;6.65;;;6.25;;
17169;SDS011;8700;48.222;16.342;2023-06-14T13:59:42;6.80;;;6.10;;
17169;SDS011;8700;48.222;16.342;2023-06-14T14:03:07;6.38;;;5.93;;
17169;SDS011;8700;48.222;16.342;2023-06-14T14:06:30;6.82;;;6.30;;
17169;SDS011;8700;48.222;16.342;2023-06-14T14:09:52;7.80;;;6.13;;
17169;SDS011;8700;48.222;16.342;2023-06-14T14:13:15;6.72;;;6.22;;
17169;SDS011;8700;48.222;16.342;2023-06-14T14:16:37;7.18;;;6.55;;
17169;SDS011;8700;48.222;16.342;2023-06-14T14:20:01;6.22;;;5.78;;
17169;SDS011;8700;48.222;16.342;2023-06-14T14:23:23;6.97;;;6.25;;
17169;SDS011;8700;48.222;16.342;2023-06-14T14:26:45;7.38;;;6.80;;
17169;SDS011;8700;48.222;16.342;2023-06-14T14:30:11;6.53;;;5.97;;
17169;SDS011;8700;48.222;16.342;2023-06-14T14:33:33;6.63;;;6.10;;
17169;SDS011;8700;48.222;16.342;2023-06-14T14:36:55;6.00;;;5.60;;
17169;SDS011;8700;48.222;16.342;2023-06-14T14:40:17;6.32;;;5.88;;
17169;SDS011;8700;48.222;16.342;2023-06-14T14:43:41;6.60;;;6.07;;
17169;SDS011;8700;48.222;16.342;2023-06-14T14:47:04;6.32;;;5.78;;
17169;SDS011;8700;48.222;16.342;2023-06-14T14:50:27;6.88;;;6.43;;
17169;SDS011;8700;48.222;16.342;2023-06-14T14:53:49;7.18;;;6.68;;
17169;SDS011;8700;48.222;16.342;2023-06-14T14:57:10;7.00;;;6.50;;
17169;SDS011;8700;48.222;16.342;2023-06-14T15:00:32;6.35;;;5.90;;
17169;SDS011;8700;48.222;16.342;2023-06-14T15:03:55;6.93;;;6.43;;
17169;SDS011;8700;48.222;16.342;2023-06-14T15:07:17;6.70;;;6.10;;
17169;SDS011;8700;48.222;16.342;2023-06-14T15:10:39;6.45;;;5.95;;
17169;SDS011;8700;48.222;16.342;2023-06-14T15:14:01;6.55;;;5.95;;
17169;SDS011;8700;48.222;16.342;2023-06-14T15:17:23;6.40;;;5.80;;
17169;SDS011;8700;48.222;16.342;2023-06-14T15:20:46;6.97;;;6.47;;
17169;SDS011;8700;48.222;16.342;2023-06-14T15:24:09;7.30;;;6.60;;
17169;SDS011;8700;48.222;16.342;2023-06-14T15:27:31;6.18;;;5.78;;
17169;SDS011;8700;48.222;16.342;2023-06-14T15:30:52;7.05;;;6.45;;
17169;SDS011;8700;48.222;16.342;2023-06-14T15:34:15;7.10;;;6.57;;
17169;SDS011;8700;48.222;16.342;2023-06-14T15:37:37;6.72;;;6.05;;
17169;SDS011;8700;48.222;16.342;2023-06-14T15:40:59;6.43;;;5.93;;
17169;SDS011;8700;48.222;16.342;2023-06-14T15:44:20;6.68;;;6.05;;
17169;SDS011;8700;48.222;16.342;2023-06-14T15:47:42;8.00;;;6.85;;
17169;SDS011;8700;48.222;16.342;2023-06-14T15:51:04;7.78;;;7.07;;
17169;SDS011;8700;48.222;16.342;2023-06-14T15:54:27;6.75;;;6.15;;
17169;SDS011;8700;48.222;16.342;2023-06-14T15:57:49;7.43;;;6.55;;
17169;SDS011;8700;48.222;16.342;2023-06-14T16:01:10;6.10;;;5.60;;
17169;SDS011;8700;48.222;16.342;2023-06-14T16:04:32;6.90;;;6.32;;
17169;SDS011;8700;48.222;16.342;2023-06-14T16:07:54;8.25;;;7.40;;
17169;SDS011;8700;48.222;16.342;2023-06-14T16:11:17;7.13;;;6.53;;
17169;SDS011;8700;48.222;16.342;2023-06-14T16:14:38;7.95;;;7.35;;
17169;SDS011;8700;48.222;16.342;2023-06-14T16:18:00;6.30;;;5.80;;
17169;SDS011;8700;48.222;16.342;2023-06-14T16:21:21;6.43;;;5.90;;
17169;SDS011;8700;48.222;16.342;2023-06-14T16:24:42;6.57;;;6.18;;
17169;SDS011;8700;48.222;16.342;2023-06-14T16:28:06;12.93;;;11.73;;
17169;SDS011;8700;48.222;16.342;2023-06-14T16:31:29;7.53;;;7.00;;
17169;SDS011;8700;48.222;16.342;2023-06-14T16:34:51;8.75;;;8.05;;
17169;SDS011;8700;48.222;16.342;2023-06-14T16:38:12;9.20;;;8.32;;
17169;SDS011;8700;48.222;16.342;2023-06-14T16:41:34;7.60;;;6.90;;
17169;SDS011;8700;48.222;16.342;2023-06-14T16:44:57;8.20;;;7.60;;
17169;SDS011;8700;48.222;16.342;2023-06-14T16:48:23;7.88;;;7.07;;
17169;SDS011;8700;48.222;16.342;2023-06-14T16:51:46;8.00;;;7.38;;
17169;SDS011;8700;48.222;16.342;2023-06-14T16:55:08;8.18;;;7.47;;
17169;SDS011;8700;48.222;16.342;2023-06-14T16:58:30;8.30;;;7.57;;
17169;SDS011;8700;48.222;16.342;2023-06-14T17:01:58;7.85;;;7.07;;
17169;SDS011;8700;48.222;16.342;2023-06-14T17:05:21;8.25;;;7.18;;
17169;SDS011;8700;48.222;16.342;2023-06-14T17:08:44;8.32;;;7.72;;
17169;SDS011;8700;48.222;16.342;2023-06-14T17:12:06;7.90;;;7.13;;
17169;SDS011;8700;48.222;16.342;2023-06-14T17:15:28;7.75;;;7.15;;
17169;SDS011;8700;48.222;16.342;2023-06-14T17:18:50;8.13;;;7.53;;
17169;SDS011;8700;48.222;16.342;2023-06-14T17:22:13;7.95;;;7.03;;
17169;SDS011;8700;48.222;16.342;2023-06-14T17:25:37;8.88;;;8.18;;
17169;SDS011;8700;48.222;16.342;2023-06-14T17:28:59;8.38;;;7.68;;
17169;SDS011;8700;48.222;16.342;2023-06-14T17:32:20;7.82;;;7.18;;
17169;SDS011;8700;48.222;16.342;2023-06-14T17:35:43;7.85;;;7.25;;
17169;SDS011;8700;48.222;16.342;2023-06-14T17:39:07;8.50;;;7.75;;
17169;SDS011;8700;48.222;16.342;2023-06-14T17:42:29;10.27;;;8.95;;
17169;SDS011;8700;48.222;16.342;2023-06-14T17:45:50;9.98;;;8.48;;
17169;SDS011;8700;48.222;16.342;2023-06-14T17:49:12;8.55;;;7.70;;
17169;SDS011;8700;48.222;16.342;2023-06-14T17:52:35;9.18;;;8.43;;
17169;SDS011;8700;48.222;16.342;2023-06-14T17:55:57;7.80;;;7.20;;
17169;SDS011;8700;48.222;16.342;2023-06-14T17:59:19;8.32;;;7.72;;
17169;SDS011;8700;48.222;16.342;2023-06-14T18:02:41;8.77;;;8.05;;
17169;SDS011;8700;48.222;16.342;2023-06-14T18:06:03;10.27;;;9.32;;
17169;SDS011;8700;48.222;16.342;2023-06-14T18:09:26;9.35;;;8.60;;
17169;SDS011;8700;48.222;16.342;2023-06-14T18:12:51;8.43;;;7.93;;
17169;SDS011;8700;48.222;16.342;2023-06-14T18:16:14;8.63;;;8.02;;
17169;SDS011;8700;48.222;16.342;2023-06-14T18:19:38;8.32;;;7.57;;
17169;SDS011;8700;48.222;16.342;2023-06-14T18:23:02;8.95;;;8.25;;
17169;SDS011;8700;48.222;16.342;2023-06-14T18:26:26;9.18;;;8.38;;
17169;SDS011;8700;48.222;16.342;2023-06-14T18:29:48;9.40;;;8.70;;
17169;SDS011;8700;48.222;16.342;2023-06-14T18:33:10;8.82;;;8.13;;
17169;SDS011;8700;48.222;16.342;2023-06-14T18:36:32;9.50;;;8.80;;
17169;SDS011;8700;48.222;16.342;2023-06-14T18:39:57;9.23;;;8.52;;
17169;SDS011;8700;48.222;16.342;2023-06-14T18:43:26;9.18;;;8.48;;
17169;SDS011;8700;48.222;16.342;2023-06-14T18:46:51;8.80;;;8.10;;
17169;SDS011;8700;48.222;16.342;2023-06-14T18:50:12;8.63;;;7.93;;
17169;SDS011;8700;48.222;16.342;2023-06-14T18:53:34;9.27;;;8.52;;
17169;SDS011;8700;48.222;16.342;2023-06-14T18:56:57;9.60;;;8.90;;
17169;SDS011;8700;48.222;16.342;2023-06-14T19:00:20;10.40;;;9.35;;
17169;SDS011;8700;48.222;16.342;2023-06-14T19:03:43;8.23;;;7.63;;
17169;SDS011;8700;48.222;16.342;2023-06-14T19:07:05;8.43;;;7.85;;
17169;SDS011;8700;48.222;16.342;2023-06-14T19:10:28;8.25;;;7.55;;
17169;SDS011;8700;48.222;16.342;2023-06-14T19:13:50;9.82;;;9.05;;
17169;SDS011;8700;48.222;16.342;2023-06-14T19:17:13;9.93;;;9.13;;
17169;SDS011;8700;48.222;16.342;2023-06-14T19:20:35;11.18;;;10.32;;
17169;SDS011;8700;48.222;16.342;2023-06-14T19:23:59;9.85;;;9.05;;
17169;SDS011;8700;48.222;16.342;2023-06-14T19:27:22;11.88;;;10.75;;
17169;SDS011;8700;48.222;16.342;2023-06-14T19:30:44;10.10;;;9.40;;
17169;SDS011;8700;48.222;16.342;2023-06-14T19:34:08;10.00;;;9.20;;
17169;SDS011;8700;48.222;16.342;2023-06-14T19:37:30;10.48;;;9.57;;
17169;SDS011;8700;48.222;16.342;2023-06-14T19:40:52;11.32;;;10.32;;
17169;SDS011;8700;48.222;16.342;2023-06-14T19:44:13;10.32;;;9.43;;
17169;SDS011;8700;48.222;16.342;2023-06-14T19:47:35;10.55;;;9.50;;
17169;SDS011;8700;48.222;16.342;2023-06-14T19:50:58;11.13;;;10.20;;
17169;SDS011;8700;48.222;16.342;2023-06-14T19:54:20;11.48;;;10.57;;
17169;SDS011;8700;48.222;16.342;2023-06-14T19:57:41;11.80;;;10.80;;
17169;SDS011;8700;48.222;16.342;2023-06-14T20:01:03;11.32;;;10.40;;
17169;SDS011;8700;48.222;16.342;2023-06-14T20:04:28;11.13;;;10.35;;
17169;SDS011;8700;48.222;16.342;2023-06-14T20:07:51;11.82;;;10.85;;
17169;SDS011;8700;48.222;16.342;2023-06-14T20:11:13;12.40;;;11.25;;
17169;SDS011;8700;48.222;16.342;2023-06-14T20:14:36;12.15;;;11.07;;
17169;SDS011;8700;48.222;16.342;2023-06-14T20:17:58;11.30;;;10.45;;
17169;SDS011;8700;48.222;16.342;2023-06-14T20:21:22;12.43;;;11.20;;
17169;SDS011;8700;48.222;16.342;2023-06-14T20:24:46;10.25;;;9.45;;
17169;SDS011;8700;48.222;16.342;2023-06-14T20:28:09;11.48;;;10.38;;